Time;durP1;ratioP1;P1;durP2;ratioP2;P2;SDS_P1;SDS_P2;PMS_P1;PMS_P2;Temp;Humidity;BMP_temperature;BMP_pressure;BME280_temperature;BME280_humidity;BME280_pressure;Samples;Min_cycle;Max_cycle;Signal;HPM_P1;HPM_P2
2023/12/11 00:01:04;;;;;;;1999.90;999.90;;;9.20;99.90;;;;;;5022959;28;20028;-72
2023/12/11 00:03:30;;;;;;;1999.90;999.90;;;9.20;99.90;;;;;;5020808;28;20424;-72
2023/12/11 00:05:56;;;;;;;1999.90;999.90;;;9.10;99.90;;;;;;5022556;28;20049;-71
2023/12/11 00:08:22;;;;;;;1999.90;999.90;;;9.10;99.90;;;;;;5025218;28;20303;-71
2023/12/11 00:10:48;;;;;;;1999.90;999.90;;;9.10;99.90;;;;;;5028612;28;20033;-71
2023/12/11 00:13:14;;;;;;;1999.90;999.90;;;9.10;99.90;;;;;;5039772;28;20041;-71
2023/12/11 00:15:40;;;;;;;1999.90;999.90;;;9.10;99.90;;;;;;5033050;28;20037;-71
2023/12/11 00:18:06;;;;;;;1999.90;999.90;;;9.10;99.90;;;;;;5045602;28;20126;-72
2023/12/11 00:20:32;;;;;;;1999.90;999.90;;;9.10;99.90;;;;;;5036803;28;20481;-71
2023/12/11 00:22:59;;;;;;;1999.90;999.90;;;9.10;99.90;;;;;;5035122;28;20060;-71
2023/12/11 00:25:27;;;;;;;1999.90;999.90;;;9.10;99.90;;;;;;5030274;28;20107;-72
2023/12/11 00:27:52;;;;;;;1999.90;999.90;;;9.20;99.90;;;;;;5042699;28;20092;-73
2023/12/11 00:30:19;;;;;;;1999.90;999.90;;;9.20;99.90;;;;;;5048921;28;20125;-71
2023/12/11 00:32:44;;;;;;;1999.90;999.90;;;9.20;99.90;;;;;;5042720;28;20052;-71
2023/12/11 00:35:10;;;;;;;1999.90;999.90;;;9.30;99.90;;;;;;5042683;28;20037;-71
2023/12/11 00:37:36;;;;;;;1999.90;999.90;;;9.30;99.90;;;;;;5046117;28;20424;-71
2023/12/11 00:40:03;;;;;;;1999.90;999.90;;;9.40;99.90;;;;;;5035155;28;20036;-71
2023/12/11 00:42:28;;;;;;;1999.90;999.90;;;9.40;99.90;;;;;;5032948;28;20025;-71
2023/12/11 00:44:54;;;;;;;1999.90;999.90;;;9.40;99.90;;;;;;5033234;28;20026;-71
2023/12/11 00:47:20;;;;;;;1999.90;999.90;;;9.50;99.90;;;;;;5032938;28;20029;-71
2023/12/11 00:49:48;;;;;;;1999.90;999.90;;;9.60;99.90;;;;;;5032589;28;20049;-71
2023/12/11 00:52:14;;;;;;;1999.90;999.90;;;9.60;99.90;;;;;;5015270;28;20282;-71
2023/12/11 00:54:40;;;;;;;1999.90;999.90;;;9.70;99.90;;;;;;5033331;28;20034;-71
2023/12/11 00:57:06;;;;;;;1999.90;999.90;;;9.70;99.90;;;;;;5032391;28;20452;-71
2023/12/11 00:59:32;;;;;;;1999.90;999.90;;;9.70;99.90;;;;;;5032842;28;20021;-71
2023/12/11 01:01:57;;;;;;;1999.90;999.90;;;9.70;99.90;;;;;;5032937;28;20053;-71
2023/12/11 01:04:23;;;;;;;1999.90;999.90;;;9.70;99.90;;;;;;5032452;28;20354;-71
2023/12/11 01:06:49;;;;;;;1999.90;999.90;;;9.80;99.90;;;;;;5033121;28;20032;-71
2023/12/11 01:09:15;;;;;;;1999.90;999.90;;;9.80;99.90;;;;;;5026902;28;20489;-71
2023/12/11 01:11:40;;;;;;;1999.90;999.90;;;9.70;99.90;;;;;;5031810;28;20040;-72
2023/12/11 01:14:06;;;;;;;1999.90;999.90;;;9.70;99.90;;;;;;5031427;28;20025;-71
2023/12/11 01:16:32;;;;;;;1999.90;999.90;;;9.70;99.90;;;;;;5032215;28;20040;-71
2023/12/11 01:18:58;;;;;;;1999.90;999.90;;;9.70;99.90;;;;;;5022248;28;20084;-71
2023/12/11 01:21:23;;;;;;;1999.90;999.90;;;9.60;99.90;;;;;;5028619;28;20080;-71
2023/12/11 01:23:49;;;;;;;1999.90;999.90;;;9.70;99.90;;;;;;5032829;28;20025;-72
2023/12/11 01:26:15;;;;;;;1999.90;999.90;;;9.70;99.90;;;;;;5030420;28;20030;-72
2023/12/11 01:28:41;;;;;;;1999.90;999.90;;;9.80;99.90;;;;;;5026155;28;20025;-72
2023/12/11 01:31:06;;;;;;;1999.90;999.90;;;9.80;99.90;;;;;;5025201;28;20030;-72
2023/12/11 01:33:32;;;;;;;1999.90;999.90;;;9.80;99.90;;;;;;5030913;28;20420;-71
2023/12/11 01:35:58;;;;;;;1999.90;999.90;;;9.80;99.90;;;;;;5032361;28;20033;-71
2023/12/11 01:38:24;;;;;;;1999.90;999.90;;;9.90;99.90;;;;;;5031446;28;20345;-71
2023/12/11 01:40:50;;;;;;;1999.90;999.90;;;10.00;99.90;;;;;;5032160;28;20045;-71
2023/12/11 01:43:18;;;;;;;1999.90;999.90;;;10.00;99.90;;;;;;5031382;28;20040;-70
2023/12/11 01:45:46;;;;;;;1999.90;999.90;;;10.00;99.90;;;;;;5022869;28;20420;-71
2023/12/11 01:48:12;;;;;;;1999.90;999.90;;;10.10;99.90;;;;;;5023995;28;20030;-71
2023/12/11 01:50:39;;;;;;;1999.90;999.90;;;10.10;99.90;;;;;;5034354;28;20072;-70
2023/12/11 01:53:06;;;;;;;1999.90;999.90;;;10.10;99.90;;;;;;5036181;28;20363;-72
2023/12/11 01:55:33;;;;;;;1999.90;999.90;;;10.10;99.90;;;;;;5036225;28;20036;-71
2023/12/11 01:58:01;;;;;;;1999.90;999.90;;;10.10;99.90;;;;;;5036256;28;20037;-71
2023/12/11 02:00:27;;;;;;;1999.90;999.90;;;10.10;99.90;;;;;;5034959;28;20116;-71
2023/12/11 02:02:53;;;;;;;1999.90;999.90;;;10.00;99.90;;;;;;5035603;28;20017;-71
2023/12/11 02:05:19;;;;;;;1999.90;999.90;;;10.00;99.90;;;;;;5035986;28;20029;-71
2023/12/11 02:07:45;;;;;;;1999.90;999.90;;;10.00;99.90;;;;;;5035325;28;20029;-71
2023/12/11 02:10:11;;;;;;;1999.90;999.90;;;10.00;99.90;;;;;;5035608;28;20017;-71
2023/12/11 02:12:37;;;;;;;1999.90;999.90;;;10.00;99.90;;;;;;5026574;28;20032;-71
2023/12/11 02:15:03;;;;;;;1999.90;999.90;;;10.00;99.90;;;;;;5035827;28;20703;-71
2023/12/11 02:17:29;;;;;;;1999.90;999.90;;;10.00;99.90;;;;;;5035402;28;20428;-72
2023/12/11 02:19:55;;;;;;;1999.90;999.90;;;10.00;99.90;;;;;;5035091;28;20036;-71
2023/12/11 02:22:21;;;;;;;1999.90;999.90;;;10.00;99.90;;;;;;5035309;28;20112;-72
2023/12/11 02:24:54;;;;;;;1999.90;999.90;;;9.90;99.90;;;;;;5033033;28;20476;-71
2023/12/11 02:27:20;;;;;;;1999.90;999.90;;;9.90;99.90;;;;;;5022764;28;20057;-71
2023/12/11 02:29:46;;;;;;;1999.90;999.90;;;9.90;99.90;;;;;;5046777;28;20022;-71
2023/12/11 02:32:15;;;;;;;1999.90;999.90;;;9.80;99.90;;;;;;5034817;28;20052;-71
2023/12/11 02:34:41;;;;;;;1999.90;999.90;;;9.80;99.90;;;;;;5034909;28;20351;-72
2023/12/11 02:37:07;;;;;;;1999.90;999.90;;;9.70;99.90;;;;;;5030757;28;20021;-71
2023/12/11 02:39:33;;;;;;;1999.90;999.90;;;9.70;99.90;;;;;;5021841;28;20377;-71
2023/12/11 02:41:58;;;;;;;1999.90;999.90;;;9.70;99.90;;;;;;5032655;28;20065;-70
2023/12/11 02:44:24;;;;;;;1999.90;999.90;;;9.70;99.90;;;;;;5035271;28;20431;-71
2023/12/11 02:46:50;;;;;;;1999.90;999.90;;;9.70;99.90;;;;;;5026680;28;20033;-71
2023/12/11 02:49:15;;;;;;;1999.90;999.90;;;9.70;99.90;;;;;;5033094;28;20028;-71
2023/12/11 02:51:41;;;;;;;1999.90;999.90;;;9.60;99.90;;;;;;5030084;28;20022;-71
2023/12/11 02:54:07;;;;;;;1999.90;999.90;;;9.70;99.90;;;;;;5035692;28;20033;-71
2023/12/11 02:56:32;;;;;;;1999.90;999.90;;;9.70;99.90;;;;;;5031811;28;20316;-71
2023/12/11 02:58:58;;;;;;;1999.90;999.90;;;9.70;99.90;;;;;;5035027;28;20030;-71
2023/12/11 03:01:24;;;;;;;1999.90;999.90;;;9.70;99.90;;;;;;5035087;28;20367;-71
2023/12/11 03:03:49;;;;;;;1999.90;999.90;;;9.70;99.90;;;;;;5035324;28;20029;-71
2023/12/11 03:06:21;;;;;;;1999.90;999.90;;;9.70;99.90;;;;;;5033857;28;20021;-71
2023/12/11 03:08:47;;;;;;;1999.90;999.90;;;9.70;99.90;;;;;;5023966;28;20434;-71
2023/12/11 03:11:13;;;;;;;1999.90;999.90;;;9.80;99.90;;;;;;5033908;28;20331;-71
2023/12/11 03:13:39;;;;;;;1999.90;999.90;;;9.80;99.90;;;;;;5025623;28;20022;-71
2023/12/11 03:16:04;;;;;;;1999.90;999.90;;;9.80;99.90;;;;;;5032901;28;20036;-71
2023/12/11 03:18:30;;;;;;;1999.90;999.90;;;9.90;99.90;;;;;;5034773;28;20029;-71
2023/12/11 03:20:56;;;;;;;1999.90;999.90;;;9.80;99.90;;;;;;5034646;28;20038;-71
2023/12/11 03:23:21;;;;;;;1999.90;999.90;;;9.90;99.90;;;;;;5034395;28;20029;-71
2023/12/11 03:25:47;;;;;;;1999.90;999.90;;;9.90;99.90;;;;;;5024344;28;20025;-71
2023/12/11 03:28:13;;;;;;;1999.90;999.90;;;10.00;99.90;;;;;;5036437;28;20033;-71
2023/12/11 03:30:39;;;;;;;1999.90;999.90;;;9.90;99.90;;;;;;5041639;28;20420;-71
2023/12/11 03:33:04;;;;;;;1999.90;999.90;;;10.00;99.90;;;;;;5052057;28;20040;-71
2023/12/11 03:35:30;;;;;;;1999.90;999.90;;;10.00;99.90;;;;;;5053674;28;20020;-71
2023/12/11 03:37:56;;;;;;;1999.90;999.90;;;9.90;99.90;;;;;;5041639;28;20065;-71
2023/12/11 03:40:21;;;;;;;1999.90;999.90;;;10.00;99.90;;;;;;5040939;28;20114;-71
2023/12/11 03:42:47;;;;;;;1999.90;999.90;;;10.00;99.90;;;;;;5053404;28;20025;-71
2023/12/11 03:45:13;;;;;;;1999.90;999.90;;;10.00;99.90;;;;;;5036080;28;20621;-71
2023/12/11 03:47:39;;;;;;;1999.90;999.90;;;10.10;99.90;;;;;;5029238;28;20032;-71
2023/12/11 03:50:05;;;;;;;1999.90;999.90;;;10.10;99.90;;;;;;5030821;28;20060;-71
2023/12/11 03:52:31;;;;;;;1999.90;999.90;;;10.20;99.90;;;;;;5016201;28;20026;-71
2023/12/11 03:54:56;;;;;;;1999.90;999.90;;;10.10;99.90;;;;;;5022759;28;20107;-71
2023/12/11 03:57:22;;;;;;;1999.90;999.90;;;10.20;99.90;;;;;;5039142;28;20380;-70
2023/12/11 03:59:48;;;;;;;1999.90;999.90;;;10.30;99.90;;;;;;5027243;28;20022;-71
2023/12/11 04:02:14;;;;;;;1999.90;999.90;;;10.30;99.90;;;;;;5034635;28;20056;-71
2023/12/11 04:04:39;;;;;;;1999.90;999.90;;;10.30;99.90;;;;;;5031964;28;20654;-71
2023/12/11 04:07:05;;;;;;;1999.90;999.90;;;10.30;99.90;;;;;;5031327;28;20095;-71
2023/12/11 04:09:31;;;;;;;1999.90;999.90;;;10.30;99.90;;;;;;5039764;28;20114;-71
2023/12/11 04:11:57;;;;;;;1999.90;999.90;;;10.30;99.90;;;;;;5039677;28;20424;-71
2023/12/11 04:14:22;;;;;;;1999.90;999.90;;;10.20;99.90;;;;;;5032615;28;20026;-71
2023/12/11 04:16:48;;;;;;;1999.90;999.90;;;10.20;99.90;;;;;;5031380;28;20084;-72
2023/12/11 04:19:14;;;;;;;1999.90;999.90;;;10.20;99.90;;;;;;5033422;28;20044;-72
2023/12/11 04:21:41;;;;;;;1999.90;999.90;;;10.20;99.90;;;;;;5031207;28;20302;-71
2023/12/11 04:24:06;;;;;;;1999.90;999.90;;;10.10;99.90;;;;;;5030472;28;20025;-71
2023/12/11 04:26:32;;;;;;;1999.90;999.90;;;10.10;99.90;;;;;;5035564;28;20128;-71
2023/12/11 04:28:58;;;;;;;1999.90;999.90;;;10.00;99.90;;;;;;5032718;28;20025;-71
2023/12/11 04:31:24;;;;;;;1999.90;999.90;;;10.10;99.90;;;;;;5038023;28;20029;-71
2023/12/11 04:33:50;;;;;;;1999.90;999.90;;;10.10;99.90;;;;;;5025138;28;20488;-71
2023/12/11 04:36:16;;;;;;;1999.90;999.90;;;10.10;99.90;;;;;;5027115;28;20398;-71
2023/12/11 04:38:42;;;;;;;1999.90;999.90;;;10.10;99.90;;;;;;5029222;28;20029;-71
2023/12/11 04:41:07;;;;;;;1999.90;999.90;;;10.00;99.90;;;;;;5033309;28;20482;-71
2023/12/11 04:43:33;;;;;;;1999.90;999.90;;;10.00;99.90;;;;;;5033835;28;20025;-71
2023/12/11 04:46:00;;;;;;;1999.90;999.90;;;10.00;99.90;;;;;;5031217;28;20097;-72
2023/12/11 04:48:26;;;;;;;1999.90;999.90;;;10.00;99.90;;;;;;5031272;28;20027;-71
2023/12/11 04:50:51;;;;;;;1999.90;999.90;;;10.00;99.90;;;;;;5021097;28;20030;-71
2023/12/11 04:53:17;;;;;;;1999.90;999.90;;;10.00;99.90;;;;;;5026999;28;20348;-72
2023/12/11 04:55:43;;;;;;;1999.90;999.90;;;10.00;99.90;;;;;;5028384;28;20093;-71
2023/12/11 04:58:09;;;;;;;1999.90;999.90;;;10.00;99.90;;;;;;5014269;28;20026;-72
2023/12/11 05:00:35;;;;;;;1999.90;999.90;;;10.00;99.90;;;;;;5033610;28;20107;-71
2023/12/11 05:03:00;;;;;;;1999.90;999.90;;;9.90;99.90;;;;;;5033341;28;20026;-72
2023/12/11 05:05:26;;;;;;;1999.90;999.90;;;10.00;99.90;;;;;;5032752;28;20022;-71
2023/12/11 05:07:52;;;;;;;1999.90;999.90;;;9.90;99.90;;;;;;5032195;28;20033;-71
2023/12/11 05:10:18;;;;;;;1999.90;999.90;;;9.90;99.90;;;;;;5024704;28;20324;-71
2023/12/11 05:12:44;;;;;;;1999.90;999.90;;;9.90;99.90;;;;;;5032232;28;20057;-71
2023/12/11 05:15:10;;;;;;;1999.90;999.90;;;9.80;99.90;;;;;;5033500;28;20032;-70
2023/12/11 05:17:35;;;;;;;1999.90;999.90;;;9.80;99.90;;;;;;5017689;28;20061;-71
2023/12/11 05:20:01;;;;;;;1999.90;999.90;;;9.80;99.90;;;;;;5033150;28;20048;-71
2023/12/11 05:22:27;;;;;;;1999.90;999.90;;;9.80;99.90;;;;;;5032143;28;20026;-72
2023/12/11 05:24:53;;;;;;;1999.90;999.90;;;9.90;99.90;;;;;;5036476;28;20026;-71
2023/12/11 05:27:19;;;;;;;1999.90;999.90;;;9.90;99.90;;;;;;5036871;28;20036;-71
2023/12/11 05:29:44;;;;;;;1999.90;999.90;;;9.90;99.90;;;;;;5036109;28;20105;-71
2023/12/11 05:32:10;;;;;;;1999.90;999.90;;;9.90;99.90;;;;;;5036469;28;20033;-72
2023/12/11 05:34:36;;;;;;;1999.90;999.90;;;9.90;99.90;;;;;;5036268;28;20025;-71
2023/12/11 05:37:02;;;;;;;1999.90;999.90;;;9.90;99.90;;;;;;5036665;28;20036;-71
2023/12/11 05:39:28;;;;;;;1999.90;999.90;;;9.90;99.90;;;;;;5035980;28;20417;-71
2023/12/11 05:41:54;;;;;;;1999.90;999.90;;;9.90;99.90;;;;;;5036503;28;20057;-71
2023/12/11 05:44:20;;;;;;;1999.90;999.90;;;9.90;99.90;;;;;;5024423;28;20409;-71
2023/12/11 05:46:46;;;;;;;1999.90;999.90;;;9.80;99.90;;;;;;5019613;28;20083;-71
2023/12/11 05:49:12;;;;;;;;;;;9.80;99.90;;;;;;5036620;28;20048;-71
2023/12/11 05:51:38;;;;;;;1999.90;999.90;;;9.80;99.90;;;;;;5035406;28;19913;-71
2023/12/11 05:54:03;;;;;;;1999.90;999.90;;;9.80;99.90;;;;;;5026903;28;20033;-71
2023/12/11 05:56:30;;;;;;;1999.90;999.90;;;9.80;99.90;;;;;;5029130;28;20481;-72
2023/12/11 05:58:56;;;;;;;1999.90;999.90;;;9.80;99.90;;;;;;5024684;28;20021;-71
2023/12/11 06:01:22;;;;;;;1999.90;999.90;;;9.80;99.90;;;;;;5036331;28;20065;-72
2023/12/11 06:03:48;;;;;;;1999.90;999.90;;;9.80;99.90;;;;;;5034919;28;20064;-72
2023/12/11 06:06:15;;;;;;;1999.90;999.90;;;9.70;99.90;;;;;;5023149;28;20046;-72
2023/12/11 06:08:41;;;;;;;1999.90;999.90;;;9.70;99.90;;;;;;5036188;28;20342;-71
2023/12/11 06:11:07;;;;;;;1999.90;999.90;;;9.70;99.90;;;;;;5035372;28;20029;-71
2023/12/11 06:13:32;;;;;;;1999.90;999.90;;;9.70;99.90;;;;;;5036049;28;20030;-71
2023/12/11 06:15:58;;;;;;;1999.90;999.90;;;9.60;99.90;;;;;;5035306;28;20032;-71
2023/12/11 06:18:25;;;;;;;1999.90;999.90;;;9.60;99.90;;;;;;5026829;28;20030;-71
2023/12/11 06:20:51;;;;;;;1999.90;999.90;;;9.60;99.90;;;;;;5033557;28;20044;-71
2023/12/11 06:23:16;;;;;;;1999.90;999.90;;;9.60;99.90;;;;;;5035983;28;20029;-71
2023/12/11 06:25:42;;;;;;;1999.90;999.90;;;9.60;99.90;;;;;;5032448;28;20021;-72
2023/12/11 06:28:08;;;;;;;1999.90;999.90;;;9.50;99.90;;;;;;5032641;28;20025;-71
2023/12/11 06:30:34;;;;;;;1999.90;999.90;;;9.60;99.90;;;;;;5031886;28;20034;-71
2023/12/11 06:33:00;;;;;;;1999.90;999.90;;;9.60;99.90;;;;;;5038644;28;20298;-71
2023/12/11 06:35:26;;;;;;;1999.90;999.90;;;9.50;99.90;;;;;;5034861;28;20032;-71
2023/12/11 06:37:51;;;;;;;1999.90;999.90;;;9.60;99.90;;;;;;5035289;28;20025;-71
2023/12/11 06:40:17;;;;;;;1999.90;999.90;;;9.60;99.90;;;;;;5033728;28;20052;-71
2023/12/11 06:42:43;;;;;;;1999.90;999.90;;;9.60;99.90;;;;;;5027923;28;20025;-71
2023/12/11 06:45:10;;;;;;;1999.90;999.90;;;9.60;99.90;;;;;;5047056;28;20021;-71
2023/12/11 06:47:37;;;;;;;1999.90;999.90;;;9.60;99.90;;;;;;5040120;28;20354;-71
2023/12/11 06:50:03;;;;;;;1999.90;999.90;;;9.60;99.90;;;;;;5035041;28;20051;-71
2023/12/11 06:52:29;;;;;;;1999.90;999.90;;;9.60;99.90;;;;;;5028114;28;20038;-71
2023/12/11 06:54:55;;;;;;;1999.90;999.90;;;9.60;99.90;;;;;;5037900;28;20037;-72
2023/12/11 06:57:21;;;;;;;1999.90;999.90;;;9.70;99.90;;;;;;5040724;28;20037;-72
2023/12/11 06:59:47;;;;;;;1999.90;999.90;;;9.70;99.90;;;;;;5031614;28;20030;-72
2023/12/11 07:02:13;;;;;;;1999.90;999.90;;;9.70;99.90;;;;;;5034342;28;20025;-72
2023/12/11 07:04:42;;;;;;;1999.90;999.90;;;9.70;99.90;;;;;;5027614;28;20030;-72
2023/12/11 07:07:09;;;;;;;1999.90;999.90;;;9.70;99.90;;;;;;5028436;28;20065;-71
2023/12/11 07:09:35;;;;;;;;;;;9.60;99.90;;;;;;5028411;28;20030;-72
2023/12/11 07:12:01;;;;;;;1999.90;999.90;;;9.70;99.90;;;;;;5034773;28;19913;-73
2023/12/11 07:14:26;;;;;;;1999.90;999.90;;;9.60;99.90;;;;;;5033922;28;20085;-72
2023/12/11 07:16:52;;;;;;;1999.90;999.90;;;9.60;99.90;;;;;;5034846;28;20440;-71
2023/12/11 07:19:21;;;;;;;1999.90;999.90;;;9.60;99.90;;;;;;5034109;28;20073;-72
2023/12/11 07:21:47;;;;;;;1999.90;999.90;;;9.60;99.90;;;;;;5034656;28;20096;-72
2023/12/11 07:24:13;;;;;;;1999.90;999.90;;;9.60;99.90;;;;;;5034360;28;20412;-73
2023/12/11 07:26:38;;;;;;;1999.90;999.90;;;9.60;99.90;;;;;;5029399;28;20037;-71
2023/12/11 07:29:07;;;;;;;1999.90;999.90;;;9.60;99.90;;;;;;5030899;28;20032;-71
2023/12/11 07:31:33;;;;;;;1999.90;999.90;;;9.60;99.90;;;;;;5036014;28;20021;-72
2023/12/11 07:33:59;;;;;;;1999.90;999.90;;;9.60;99.90;;;;;;5022586;28;20032;-71
2023/12/11 07:36:25;;;;;;;1999.90;999.90;;;9.70;99.90;;;;;;5038253;28;20028;-71
2023/12/11 07:38:51;;;;;;;1999.90;999.90;;;9.60;99.90;;;;;;5039349;28;20443;-72
2023/12/11 07:41:20;;;;;;;1999.90;999.90;;;9.70;99.90;;;;;;5040038;28;20286;-71
2023/12/11 07:43:47;;;;;;;1999.90;999.90;;;9.70;99.90;;;;;;5039987;28;20022;-71
2023/12/11 07:46:17;;;;;;;1999.90;999.90;;;9.70;99.90;;;;;;5022186;28;20329;-71
2023/12/11 07:48:43;;;;;;;1999.90;999.90;;;9.70;99.90;;;;;;5037814;28;20158;-71
2023/12/11 07:51:17;;;;;;;1999.90;999.90;;;9.80;99.90;;;;;;5030309;28;20117;-71
2023/12/11 07:53:44;;;;;;;1999.90;999.90;;;9.80;99.90;;;;;;5032548;28;20370;-72
2023/12/11 07:56:18;;;;;;;1999.90;999.90;;;9.80;99.90;;;;;;5037697;28;20061;-71
2023/12/11 07:58:44;;;;;;;1999.90;999.90;;;9.80;99.90;;;;;;5027001;28;20041;-71
2023/12/11 08:01:10;;;;;;;1999.90;999.90;;;9.90;99.90;;;;;;5027723;28;20160;-71
2023/12/11 08:03:36;;;;;;;1999.90;999.90;;;9.80;99.90;;;;;;5033465;28;20033;-71
2023/12/11 08:06:02;;;;;;;1999.90;999.90;;;9.80;99.90;;;;;;5025868;28;20417;-71
2023/12/11 08:08:28;;;;;;;1999.90;999.90;;;9.80;99.90;;;;;;5027083;28;20029;-71
2023/12/11 08:10:54;;;;;;;1999.90;999.90;;;9.80;99.90;;;;;;5024269;28;20443;-71
2023/12/11 08:13:20;;;;;;;1999.90;999.90;;;9.80;99.90;;;;;;5023792;28;20033;-72
2023/12/11 08:15:46;;;;;;;1999.90;999.90;;;9.80;99.90;;;;;;5033274;28;20057;-71
2023/12/11 08:18:12;;;;;;;1999.90;999.90;;;9.80;99.90;;;;;;5032819;28;20087;-71
2023/12/11 08:20:38;;;;;;;1999.90;999.90;;;9.80;99.90;;;;;;5033688;28;20091;-71
2023/12/11 08:23:04;;;;;;;1999.90;999.90;;;9.80;99.90;;;;;;5028965;28;20033;-71
2023/12/11 08:25:29;;;;;;;1999.90;999.90;;;9.80;99.90;;;;;;5031191;28;20033;-70
2023/12/11 08:27:55;;;;;;;1999.90;999.90;;;9.80;99.90;;;;;;5042875;28;20040;-72
2023/12/11 08:30:21;;;;;;;1999.90;999.90;;;9.80;99.90;;;;;;5036311;28;20060;-71
2023/12/11 08:32:47;;;;;;;1999.90;999.90;;;9.80;99.90;;;;;;5043015;28;20084;-71
2023/12/11 08:35:13;;;;;;;1999.90;999.90;;;9.80;99.90;;;;;;5038699;28;20088;-71
2023/12/11 08:37:39;;;;;;;1999.90;999.90;;;9.80;99.90;;;;;;5034255;28;20025;-71
2023/12/11 08:40:05;;;;;;;1999.90;999.90;;;9.80;99.90;;;;;;5030780;28;20037;-71
2023/12/11 08:42:36;;;;;;;1999.90;999.90;;;9.80;99.90;;;;;;5036376;28;20033;-71
2023/12/11 08:45:01;;;;;;;1999.90;999.90;;;9.80;99.90;;;;;;5022328;28;20022;-71
2023/12/11 08:47:29;;;;;;;1999.90;999.90;;;9.80;99.90;;;;;;5031991;28;20435;-71
2023/12/11 08:49:55;;;;;;;1999.90;999.90;;;9.80;99.90;;;;;;5037886;28;20021;-70
2023/12/11 08:52:21;;;;;;;1999.90;999.90;;;9.80;99.90;;;;;;5034379;28;20041;-71
2023/12/11 08:54:47;;;;;;;1999.90;999.90;;;9.80;99.90;;;;;;5027149;28;20408;-71
2023/12/11 08:57:12;;;;;;;1999.90;999.90;;;9.80;99.90;;;;;;5027344;28;20026;-71
2023/12/11 08:59:38;;;;;;;1999.90;999.90;;;9.80;99.90;;;;;;5041115;28;20048;-71
2023/12/11 09:02:04;;;;;;;1999.90;999.90;;;9.80;99.90;;;;;;5036224;28;20301;-71
2023/12/11 09:04:30;;;;;;;1999.90;999.90;;;9.80;99.90;;;;;;5035050;28;20029;-71
2023/12/11 09:06:56;;;;;;;1999.90;999.90;;;9.80;99.90;;;;;;5036222;28;20442;-71
2023/12/11 09:09:22;;;;;;;1999.90;999.90;;;9.80;99.90;;;;;;5040749;28;20388;-71
2023/12/11 09:11:48;;;;;;;1999.90;999.90;;;9.80;99.90;;;;;;5029497;28;20021;-71
2023/12/11 09:14:14;;;;;;;1999.90;999.90;;;9.80;99.90;;;;;;5032419;28;20421;-71
2023/12/11 09:16:40;;;;;;;1999.90;999.90;;;9.80;99.90;;;;;;5029549;28;20037;-71
2023/12/11 09:19:06;;;;;;;1999.90;999.90;;;9.90;99.90;;;;;;5031217;28;20389;-71
2023/12/11 09:21:32;;;;;;;1999.90;999.90;;;9.90;99.90;;;;;;5043284;28;20037;-71
2023/12/11 09:23:57;;;;;;;1999.90;999.90;;;9.90;99.90;;;;;;5040652;28;20104;-71
2023/12/11 09:26:23;;;;;;;1999.90;999.90;;;9.90;99.90;;;;;;5042773;28;20059;-71
2023/12/11 09:28:49;;;;;;;1999.90;999.90;;;9.90;99.90;;;;;;5022603;28;20030;-72
2023/12/11 09:31:19;;;;;;;1999.90;999.90;;;9.90;99.90;;;;;;5036188;28;20124;-72
2023/12/11 09:33:45;;;;;;;1999.90;999.90;;;9.90;99.90;;;;;;5032379;28;20080;-72
2023/12/11 09:36:11;;;;;;;1999.90;999.90;;;9.90;99.90;;;;;;5026559;28;20029;-71
2023/12/11 09:38:37;;;;;;;1999.90;999.90;;;9.90;99.90;;;;;;5031580;28;20380;-71
2023/12/11 09:41:03;;;;;;;1999.90;999.90;;;9.90;99.90;;;;;;5041030;28;20062;-71
2023/12/11 09:43:29;;;;;;;1999.90;999.90;;;9.80;99.90;;;;;;5042206;28;20033;-71
2023/12/11 09:45:56;;;;;;;1999.90;999.90;;;9.80;99.90;;;;;;5044382;28;20025;-71
2023/12/11 09:48:22;;;;;;;;;;;9.90;99.90;;;;;;5030489;28;20064;-71
2023/12/11 09:50:48;;;;;;;1999.90;999.90;;;9.90;99.90;;;;;;5026611;28;19945;-71
2023/12/11 09:53:14;;;;;;;1999.90;999.90;;;9.90;99.90;;;;;;5035976;28;20029;-72
2023/12/11 09:55:40;;;;;;;1999.90;999.90;;;10.00;99.90;;;;;;5033427;28;20026;-71
2023/12/11 09:58:07;;;;;;;1999.90;999.90;;;9.90;99.90;;;;;;5025342;28;20356;-71
2023/12/11 10:00:33;;;;;;;1999.90;999.90;;;9.90;99.90;;;;;;5014586;28;20026;-71
2023/12/11 10:03:05;;;;;;;1999.90;999.90;;;9.80;99.90;;;;;;5026048;28;20424;-71
2023/12/11 10:05:33;;;;;;;1999.90;999.90;;;9.80;99.90;;;;;;5032105;28;20432;-71
2023/12/11 10:08:00;;;;;;;1999.90;999.90;;;9.80;99.90;;;;;;5034345;28;20017;-70
2023/12/11 10:10:31;;;;;;;1999.90;999.90;;;9.80;99.90;;;;;;5033237;28;20026;-71
2023/12/11 10:12:58;;;;;;;1999.90;999.90;;;9.80;99.90;;;;;;5031198;28;20053;-71
2023/12/11 10:15:29;;;;;;;1999.90;999.90;;;9.80;99.90;;;;;;5034884;28;20036;-71
2023/12/11 10:18:02;;;;;;;1999.90;999.90;;;9.80;99.90;;;;;;5034481;28;20395;-71
2023/12/11 10:20:28;;;;;;;1999.90;999.90;;;10.00;99.90;;;;;;5029214;28;20053;-71
2023/12/11 10:22:54;;;;;;;1999.90;999.90;;;10.20;99.90;;;;;;5033588;28;20029;-71
2023/12/11 10:25:27;;;;;;;1999.90;999.90;;;10.30;99.90;;;;;;5038352;28;20052;-70
2023/12/11 10:28:13;;;;;;;1999.90;999.90;;;10.30;99.90;;;;;;5026479;28;20025;-70
2023/12/11 10:30:52;;;;;;;1999.90;999.90;;;10.20;99.90;;;;;;5031277;28;20107;-71
2023/12/11 10:33:18;;;;;;;1999.90;999.90;;;10.10;99.90;;;;;;5047114;28;20091;-71
2023/12/11 10:35:45;;;;;;;1999.90;999.90;;;10.20;99.90;;;;;;5038777;28;20112;-70
2023/12/11 10:38:21;;;;;;;1999.90;999.90;;;10.20;99.90;;;;;;5029230;28;20037;-71
2023/12/11 10:40:49;;;;;;;1999.90;999.90;;;10.30;99.90;;;;;;5037840;28;20045;-71
2023/12/11 10:43:15;;;;;;;1999.90;999.90;;;10.20;99.90;;;;;;5034921;28;20021;-71
2023/12/11 10:45:41;;;;;;;1999.90;999.90;;;10.20;99.90;;;;;;5029930;28;20022;-71
2023/12/11 10:48:07;;;;;;;1999.90;999.90;;;10.10;99.90;;;;;;5028554;28;20017;-70
2023/12/11 10:50:34;;;;;;;1999.90;999.90;;;10.10;99.90;;;;;;5029224;28;20020;-71
2023/12/11 10:53:01;;;;;;;1999.90;999.90;;;10.00;99.90;;;;;;5034876;28;20112;-70
2023/12/11 10:55:29;;;;;;;1999.90;999.90;;;10.00;99.90;;;;;;5047070;28;20487;-70
2023/12/11 10:57:56;;;;;;;1999.90;999.90;;;10.00;99.90;;;;;;5035645;28;20029;-70
2023/12/11 11:00:22;;;;;;;1999.90;999.90;;;9.90;99.90;;;;;;5028634;28;20033;-70
2023/12/11 11:02:52;;;;;;;1999.90;999.90;;;9.90;99.90;;;;;;5041137;28;20412;-71
2023/12/11 11:05:20;;;;;;;1999.90;999.90;;;9.80;99.90;;;;;;5046692;28;20047;-71
2023/12/11 11:08:17;;;;;;;1999.90;999.90;;;9.70;99.90;;;;;;5042232;28;20102;-71
2023/12/11 11:11:04;;;;;;;1999.90;999.90;;;9.70;99.90;;;;;;5034080;28;20010;-71
2023/12/11 11:14:02;;;;;;;1999.90;999.90;;;9.70;99.90;;;;;;5019900;28;20034;-70
2023/12/11 11:16:51;;;;;;;1999.90;999.90;;;9.70;99.90;;;;;;5038431;28;20049;-71
2023/12/11 11:19:16;;;;;;;1999.90;999.90;;;9.70;99.90;;;;;;5034284;28;20037;-71
2023/12/11 11:22:03;;;;;;;1999.90;999.90;;;9.70;99.90;;;;;;5027815;28;20037;-71
2023/12/11 11:24:30;;;;;;;1999.90;999.90;;;9.70;99.90;;;;;;5043013;28;20470;-71
2023/12/11 11:26:57;;;;;;;1999.90;999.90;;;9.70;99.90;;;;;;5038735;28;20029;-71
2023/12/11 11:29:45;;;;;;;1999.90;999.90;;;9.70;99.90;;;;;;5036142;28;20128;-71
2023/12/11 11:32:11;;;;;;;1999.90;999.90;;;9.70;99.90;;;;;;5034283;28;20120;-70
2023/12/11 11:34:40;;;;;;;1999.90;999.90;;;9.70;99.90;;;;;;5034236;28;20320;-71
2023/12/11 11:37:20;;;;;;;1999.90;999.90;;;9.70;99.90;;;;;;5026389;28;20321;-71
2023/12/11 11:39:56;;;;;;;1999.90;999.90;;;9.90;99.90;;;;;;5036069;28;20033;-71
2023/12/11 11:42:22;;;;;;;1999.90;999.90;;;9.80;99.90;;;;;;5031508;28;20091;-71
2023/12/11 11:44:59;;;;;;;1999.90;999.90;;;9.70;99.90;;;;;;5023721;28;20028;-71
2023/12/11 11:47:26;;;;;;;1999.90;999.90;;;9.70;99.90;;;;;;5028947;28;20056;-71
2023/12/11 11:49:53;;;;;;;1999.90;999.90;;;9.70;99.90;;;;;;5032864;28;20053;-71
2023/12/11 11:52:29;;;;;;;1999.90;999.90;;;9.80;99.90;;;;;;5032197;28;20124;-70
2023/12/11 11:55:13;;;;;;;1999.90;999.90;;;9.80;99.90;;;;;;5027255;28;20067;-71
2023/12/11 11:57:42;;;;;;;1999.90;999.90;;;9.80;99.90;;;;;;5020272;28;20034;-70
2023/12/11 12:00:09;;;;;;;1999.90;999.90;;;9.80;99.90;;;;;;5022849;28;20104;-71
2023/12/11 12:02:35;;;;;;;1999.90;999.90;;;9.70;99.90;;;;;;5038420;28;20052;-70
2023/12/11 12:05:11;;;;;;;1999.90;999.90;;;9.70;99.90;;;;;;5031658;28;20017;-70